Lafayette, Louisiana
Current Conditions -  °F | °C
As of 11:53 AM on Saturday 27 Dec 2014 (Local Time) from KLFT Reporting Station
Overcast Overcast  
Wind Chill: 69°   Ceiling: 400
Heat Index: 69°   Visibility: 10mi
Dew Point: 67°   Wind: 5mph
Humidity: 93%   Direction: 140°SE
Pressure: 30.07"   Gusts: NA
Location:  30.22°N, 92.02°W
Report Text: KLFT 271753Z 14004KT 10SM OVC004 21/19 A3007 RMK AO2 RAB07E23 SLP181 P0000 60002 T02060194 10206 20167 58011
Loading
Personal Weather Stations






























Interactive Weather Map New forecast layout! Learn more

10-Day Weather Forecast

Advertisements
Track Severe Weather on mobile